Etusivu
METAR-TAF:

METAR-TAF

Lentoasemat :

Carrollton, Georgia, Yhdysvallat

Leveyspiiri: 33-37-54N, Pituuspiiri: 085-09-08W, korkeus merenpinnasta: 354 m

Tämänhetkinen sää

Tämä raportti tehtiin 13 minuuttia sitten, kello 11.35 UTC
Tuuli 4 kn idästä
Lämpötila 19°C
Kosteus 94%
Ilmanpaine 1020 hPa
Näkyvyys: 16.1 km
Pilvistä 400 ft:n korkeudessa

METAR: KCTJ 251135Z AUTO 09004KT 10SM OVC004 19/18 A3012 RMK AO2 T01850180

Aika: 07:48 (11:48 UTC)


TAF: puuttuu

Säähavainnot ja -ennusteet yli 4000 lentoasemalta (METAR- ja TAF-raportit).

Käytössä olevat sääasemat on merkitty karttaan keltaisilla ja punaisilla pisteillä.

Aseta hiiri pisteen päälle nähdäksesi sääaseman nimen.

Klikkaa sitten nähdäksesi säähavainnot ja -ennusteet.

Kartan vaihtaminen: klikkaa mustalla rastilla varustettuja vihreitä pisteitä, niin voit zoomata sisään; viivalla varustettua vihreää pistettä, niin voit zoomata ulos tai vihreitä nuolia, niin pääset viereisille kartoille.


METAR-TAF: